Terminal Aerodrome Forecast
Issued by NWS Omaha/Valley, NE

Home | Current Version | Previous Version | Text Only | Print | Product List | Glossary Off
Versions: 1 2 3 4 5 6 7 8 9 10 11 12 13 14 15 16 17 18 19 20 21 22 23 24 25 26 27 28 29 30 31 32 33 34 35 36 37 38 39 40 41 42

000
FTUS43 KOAX 181724
TAFOFK
TAF
KOFK 181724Z 1818/1918 16012KT P6SM OVC120
     FM182300 14009KT P6SM BKN080
     FM190300 05008KT P6SM -SHRA BKN080 PROB30 1903/1905 4SM TS
      OVC040CB
     FM190500 01008KT P6SM -SHRA BKN070 PROB30 1905/1908 4SM TS
      OVC015CB
     FM190800 01008KT P6SM -SHRA OVC015 PROB30 1908/1912 4SM TS
      OVC007CB
     FM191300 05008KT 5SM SHRA OVC007 PROB30 1913/1915 2SM TS
      OVC003CB=

USA.gov is the U.S. government's official web portal to all federal, state and local government web resources and services.